CheckWX is a tool to help pilots better visualize weather data.  It is not intended as a substitute for an official pre-flight weather briefing.

17:01:34 UTC

KIFA METAR
Iowa Falls Municipal Airport
Iowa Falls, Iowa, USA
Current

27 mins ago

KIFA 201635Z AUTO 31003KT 10SM CLR M14/M20 A3080 RMK AO2 T11361201
Observed
Feb-20 @ 16:35 UTC
Wind
  • 310° at 3 KTS
Visibility
10 SM
Flight Rules
VFR
Cloud Levels
  • Clear skies
Temperature
-14°C / 7°F
Dewpoint
-20°C / -4°F
Humidity
61%
Altimeter
30.8" Hg
Pressure
1043.02 hPa
Previous

47 mins ago

KIFA 201615Z AUTO 29004KT 10SM CLR M14/M20 A3080 RMK AO2 T11411203
Observed
Feb-20 @ 16:15 UTC
Wind
  • 290° at 4 KTS
Visibility
10 SM
Flight Rules
VFR
Cloud Levels
  • Clear skies
Temperature
-14°C / 7°F
Dewpoint
-20°C / -4°F
Humidity
61%
Altimeter
30.8" Hg
Pressure
1043.02 hPa
Previous

1 hour ago

KIFA 201555Z AUTO 32004KT 10SM CLR M15/M21 A3079 RMK AO2 T11471206
Observed
Feb-20 @ 15:55 UTC
Wind
  • 320° at 4 KTS
Visibility
10 SM
Flight Rules
VFR
Cloud Levels
  • Clear skies
Temperature
-15°C / 5°F
Dewpoint
-21°C / -6°F
Humidity
60%
Altimeter
30.79" Hg
Pressure
1042.72 hPa